Airfield :
LOGIN :

Register | Disclaimer

   EN    FR    IT 

 










Legend :    VFR   Marginal VFR   IFR   Intensive IFR   Very Intensive IFR
Visi :
Ceiling :
>= 8 km
>= 3000ft
5 to 8 km
1000 to 3000 ft
1500m to 5 km
500 to 1000 ft
800 to 1500m
200 to 500 ft
< 800m
< 200 ft
Symbols :   Thunderstorms  Fog  Heavy snow  Heavy precipitations  Wind > 20 kt
SIGMETs :     Misc.  Thunderstorms  Icing  Turbulence  Mountain Waves  Volcanic Ashes






- Airport Elevation : 289 ft


LIRG - Guidonia

CURRENT METAR :
  • 241055Z 02004KT 9999 BKN025TCU SCT030 23/18 Q1014 RMK BKN MON NE CLD CIME NC VIS MIN 9999 BLU

EXPIRED METARs :
  • 240955Z VRB02KT 9999 FEW020TCU SCT030 21/18 Q1014 RERA RMK BKN MON NE CLD CIME NC VIS MIN 9999 BLU
  • 240855Z 14006KT 9999 BKN025TCU 23/15 Q1014 RMK BKN MON NE CLD CIME NC VIS MIN 9999 BLU

TAF TAF LIRG
Valid from the 24 at 12:00 until the 24 at 21:00 UTC


241100Z 2412/2421 17010KT 9999 SCT020 SCT040
TEMPO 2412/2417 4000 TSRA FEW018CB BKN040



MET'MAP, your aeronautical weather chart ! - Copyright ORBIFLY December 2007 - Disclaimer

ORBIFLY MET'MAP TEAM :

Programming & Development : Alexandra Zaïnal
Concept & original design : Baudouin d'Aumeries
Assistance for programming : Marc-Olivier Méhu
Technical & hardware support : Manuel Goepfert

Contact : metmap@orbifly.com




SOURCES & CREDITS :

   NOAA